createdAt,value
2022-08-20T02:45:03.602Z,992.67
2022-08-20T02:46:03.669Z,992.64
2022-08-20T02:47:03.544Z,992.60
2022-08-20T02:48:04.910Z,992.64
2022-08-20T02:49:04.922Z,992.60
2022-08-20T02:50:07.978Z,992.63
2022-08-20T02:51:04.696Z,992.66
2022-08-20T02:52:04.709Z,992.69
2022-08-20T02:53:04.715Z,992.70
2022-08-20T02:54:04.647Z,992.71
2022-08-20T02:55:04.671Z,992.64
2022-08-20T02:56:04.622Z,992.66
2022-08-20T02:57:04.597Z,992.68
2022-08-20T02:58:04.607Z,992.67
2022-08-20T02:59:04.725Z,992.69
2022-08-20T03:00:04.584Z,992.70
2022-08-20T03:01:04.694Z,992.67
2022-08-20T03:02:04.556Z,992.66
2022-08-20T03:03:04.561Z,992.66
2022-08-20T03:04:04.555Z,992.70
2022-08-20T03:05:04.543Z,992.64
2022-08-20T03:06:04.567Z,992.63
2022-08-20T03:07:04.561Z,992.63
2022-08-20T03:08:04.575Z,992.64
2022-08-20T03:09:04.524Z,992.60
2022-08-20T03:10:04.506Z,992.62
2022-08-20T03:11:04.582Z,992.64
2022-08-20T03:12:04.442Z,992.60
2022-08-20T03:13:04.454Z,992.66
2022-08-20T03:14:04.500Z,992.63
2022-08-20T03:15:04.507Z,992.62
2022-08-20T03:16:04.443Z,992.66
2022-08-20T03:17:04.437Z,992.64
2022-08-20T03:18:04.385Z,992.67
2022-08-20T03:19:04.433Z,992.69
2022-08-20T03:20:05.269Z,992.66
2022-08-20T03:21:04.365Z,992.67
2022-08-20T03:22:04.340Z,992.68
2022-08-20T03:23:04.361Z,992.68
2022-08-20T03:24:04.329Z,992.72
2022-08-20T03:25:04.348Z,992.62
2022-08-20T03:26:04.309Z,992.68
2022-08-20T03:27:04.337Z,992.65
2022-08-20T03:28:04.267Z,992.70
2022-08-20T03:29:04.400Z,992.70
2022-08-20T03:30:04.294Z,992.69
2022-08-20T03:31:04.264Z,992.74
2022-08-20T03:32:07.681Z,992.73
2022-08-20T03:33:05.374Z,992.70
2022-08-20T03:34:04.293Z,992.66
2022-08-20T03:35:04.214Z,992.65
2022-08-20T03:36:04.223Z,992.64
2022-08-20T03:37:04.232Z,992.63
2022-08-20T03:38:04.281Z,992.67
2022-08-20T03:39:04.208Z,992.59
2022-08-20T03:40:04.242Z,992.59
2022-08-20T03:41:04.181Z,992.62
2022-08-20T03:42:04.124Z,992.61
2022-08-20T03:43:04.159Z,992.56
2022-08-20T03:44:04.165Z,992.56
2022-08-20T03:45:04.186Z,992.57
2022-08-20T03:46:04.145Z,992.58
2022-08-20T03:47:04.104Z,992.58
2022-08-20T03:48:04.103Z,992.61
2022-08-20T03:49:04.103Z,992.61
2022-08-20T03:50:04.166Z,992.55
2022-08-20T03:51:04.077Z,992.60
2022-08-20T03:52:04.125Z,992.56
2022-08-20T03:53:04.023Z,992.54
2022-08-20T03:54:04.058Z,992.56
2022-08-20T03:55:04.038Z,992.50
2022-08-20T03:56:04.026Z,992.50
2022-08-20T03:57:04.047Z,992.55
2022-08-20T03:58:05.012Z,992.61
2022-08-20T03:59:04.126Z,992.56
2022-08-20T04:00:03.969Z,992.52
2022-08-20T04:01:04.039Z,992.58
2022-08-20T04:02:04.034Z,992.56
2022-08-20T04:03:03.904Z,992.59
2022-08-20T04:04:03.998Z,992.57
2022-08-20T04:05:03.927Z,992.59
2022-08-20T04:06:03.998Z,992.60
2022-08-20T04:07:03.911Z,992.59
2022-08-20T04:08:03.934Z,992.63
2022-08-20T04:09:03.926Z,992.64
2022-08-20T04:10:03.861Z,992.66
2022-08-20T04:11:03.990Z,992.64
2022-08-20T04:12:03.830Z,992.64
2022-08-20T04:13:03.878Z,992.66
2022-08-20T04:14:03.818Z,992.62
2022-08-20T04:15:03.826Z,992.63
2022-08-20T04:16:03.817Z,992.53
2022-08-20T04:17:03.795Z,992.50
2022-08-20T04:18:03.833Z,992.56
2022-08-20T04:19:03.791Z,992.54
2022-08-20T04:20:03.793Z,992.53
2022-08-20T04:21:03.752Z,992.49
2022-08-20T04:22:03.733Z,992.54
2022-08-20T04:23:03.757Z,992.53
2022-08-20T04:24:03.747Z,992.51
2022-08-20T04:25:03.767Z,992.53
2022-08-20T04:26:03.685Z,992.57
2022-08-20T04:27:03.742Z,992.59
2022-08-20T04:28:03.675Z,992.50
2022-08-20T04:29:03.751Z,992.51
2022-08-20T04:30:03.724Z,992.56
2022-08-20T04:31:03.609Z,992.56
2022-08-20T04:32:05.759Z,992.60
2022-08-20T04:33:03.661Z,992.59
2022-08-20T04:34:03.646Z,992.54
2022-08-20T04:35:03.617Z,992.60
2022-08-20T04:36:03.732Z,992.58
2022-08-20T04:37:03.593Z,992.60
2022-08-20T04:38:03.559Z,992.60
2022-08-20T04:39:03.605Z,992.64
2022-08-20T04:40:03.568Z,992.64
2022-08-20T04:41:03.555Z,992.64
2022-08-20T04:42:03.517Z,992.65
2022-08-20T04:43:03.552Z,992.68
2022-08-20T04:44:03.537Z,992.66
2022-08-20T04:45:36.273Z,992.70
2022-08-20T04:46:03.566Z,992.68
2022-08-20T04:47:03.609Z,992.75
2022-08-20T04:48:03.474Z,992.69
2022-08-20T04:49:03.486Z,992.76
2022-08-20T04:50:03.564Z,992.82
2022-08-20T04:51:36.000Z,992.75
2022-08-20T04:52:03.632Z,992.84
2022-08-20T04:53:03.626Z,992.76
2022-08-20T04:54:03.444Z,992.78
2022-08-20T04:55:03.425Z,992.79
2022-08-20T04:56:03.411Z,992.83
2022-08-20T04:57:03.411Z,992.77
2022-08-20T04:58:03.377Z,992.85
2022-08-20T04:59:03.408Z,992.83
2022-08-20T05:00:03.368Z,992.93
2022-08-20T05:01:03.381Z,992.93
2022-08-20T05:02:03.325Z,992.98
2022-08-20T05:03:04.359Z,992.97
2022-08-20T05:04:03.437Z,993.05
2022-08-20T05:05:03.306Z,993.09
2022-08-20T05:06:03.286Z,993.05
2022-08-20T05:07:03.254Z,993.07
2022-08-20T05:08:03.278Z,993.06
2022-08-20T05:09:03.346Z,993.06
2022-08-20T05:10:03.251Z,993.07
2022-08-20T05:11:24.140Z,993.01
2022-08-20T05:12:04.184Z,993.04
2022-08-20T05:13:03.254Z,993.08
2022-08-20T05:14:03.273Z,993.07
2022-08-20T05:15:03.200Z,993.08
2022-08-20T05:16:03.290Z,993.07
2022-08-20T05:17:03.179Z,993.08
2022-08-20T05:18:03.180Z,993.02
2022-08-20T05:19:03.180Z,993.09
2022-08-20T05:20:03.208Z,993.12
2022-08-20T05:21:03.122Z,993.07
2022-08-20T05:22:03.113Z,993.08
2022-08-20T05:23:03.140Z,993.14
2022-08-20T05:24:03.120Z,993.11
2022-08-20T05:25:03.098Z,993.08
2022-08-20T05:26:03.057Z,993.06
2022-08-20T05:27:03.081Z,993.06
2022-08-20T05:28:03.085Z,993.14
2022-08-20T05:29:03.085Z,993.16
2022-08-20T05:30:03.081Z,993.11
2022-08-20T05:31:03.044Z,993.13
2022-08-20T05:32:03.784Z,993.19
2022-08-20T05:33:02.999Z,993.21
2022-08-20T05:34:03.694Z,993.15
2022-08-20T05:35:02.982Z,993.16
2022-08-20T05:36:03.013Z,993.22
2022-08-20T05:37:02.932Z,993.19
2022-08-20T05:38:02.955Z,993.20
2022-08-20T05:39:02.963Z,993.28
2022-08-20T05:40:02.993Z,993.26
2022-08-20T05:41:02.935Z,993.29
2022-08-20T05:42:02.900Z,993.37
2022-08-20T05:43:02.889Z,993.36
2022-08-20T05:44:02.894Z,993.38
2022-08-20T05:45:02.838Z,993.40
2022-08-20T05:46:03.964Z,993.41
2022-08-20T05:47:04.152Z,993.48
2022-08-20T05:48:03.518Z,993.38
2022-08-20T05:49:02.820Z,993.37
2022-08-20T05:50:02.854Z,993.41
2022-08-20T05:51:02.841Z,993.36
2022-08-20T05:52:02.799Z,993.36
2022-08-20T05:53:03.351Z,993.34
2022-08-20T05:54:02.823Z,993.38
2022-08-20T05:55:02.831Z,993.37
2022-08-20T05:56:02.805Z,993.36
2022-08-20T05:57:02.771Z,993.40
2022-08-20T05:58:03.767Z,993.41
2022-08-20T05:59:02.772Z,993.40
2022-08-20T06:00:02.761Z,993.37
2022-08-20T06:01:02.801Z,993.41
2022-08-20T06:02:02.713Z,993.41
2022-08-20T06:03:02.715Z,993.39
2022-08-20T06:04:02.728Z,993.39
2022-08-20T06:05:02.698Z,993.31
2022-08-20T06:06:02.665Z,993.30
2022-08-20T06:07:02.783Z,993.25
2022-08-20T06:08:07.280Z,993.32
2022-08-20T06:09:03.798Z,993.32
2022-08-20T06:12:12.839Z,993.42
2022-08-20T06:13:14.048Z,993.40
2022-08-20T06:14:12.869Z,993.50
2022-08-20T06:15:13.994Z,993.45
2022-08-20T06:16:14.063Z,993.46
2022-08-20T06:17:15.255Z,993.38
2022-08-20T06:18:28.628Z,993.45
2022-08-20T06:19:15.014Z,993.38
2022-08-20T06:20:14.769Z,993.41
2022-08-20T06:24:00.636Z,993.36
2022-08-20T06:24:56.682Z,993.38
2022-08-20T06:27:49.343Z,993.36
2022-08-20T06:30:39.511Z,993.41
2022-08-20T06:33:57.067Z,993.56
2022-08-20T06:36:48.518Z,993.58
2022-08-20T06:37:48.584Z,993.61
2022-08-20T06:38:48.606Z,993.54
2022-08-20T06:39:48.555Z,993.51
2022-08-20T06:40:48.501Z,993.53
2022-08-20T06:41:48.475Z,993.53
2022-08-20T06:42:49.028Z,993.53
2022-08-20T06:43:48.439Z,993.39
2022-08-20T06:44:49.666Z,993.47
2022-08-20T06:45:49.623Z,993.43
2022-08-20T06:46:50.255Z,993.46
2022-08-20T06:47:49.763Z,993.51
2022-08-20T06:48:49.637Z,993.46
2022-08-20T06:49:49.650Z,993.53
2022-08-20T06:50:49.536Z,993.56
2022-08-20T06:51:51.935Z,993.57
2022-08-20T06:52:52.711Z,993.52
2022-08-20T06:53:49.578Z,993.54
2022-08-20T06:54:49.573Z,993.54
2022-08-20T06:55:49.481Z,993.52
2022-08-20T06:56:50.090Z,993.53
2022-08-20T06:57:49.471Z,993.57
2022-08-20T06:58:49.794Z,993.55
2022-08-20T06:59:54.360Z,993.54
2022-08-20T07:00:50.529Z,993.51
2022-08-20T07:01:49.497Z,993.54
2022-08-20T07:02:49.549Z,993.51
2022-08-20T07:03:54.385Z,993.47
2022-08-20T07:04:50.458Z,993.43
2022-08-20T07:05:49.464Z,993.43
2022-08-20T07:06:49.475Z,993.39
2022-08-20T07:07:49.426Z,993.45
2022-08-20T07:08:49.402Z,993.39
2022-08-20T07:09:49.348Z,993.39
2022-08-20T07:10:49.391Z,993.35
2022-08-20T07:11:49.340Z,993.43
2022-08-20T07:12:49.435Z,993.42
2022-08-20T07:13:49.796Z,993.40
2022-08-20T07:14:49.351Z,993.47
2022-08-20T07:15:49.293Z,993.41
2022-08-20T07:16:49.286Z,993.40
2022-08-20T07:17:49.324Z,993.41
2022-08-20T07:18:49.292Z,993.43
2022-08-20T07:19:49.261Z,993.42
2022-08-20T07:20:49.265Z,993.45
2022-08-20T07:21:49.307Z,993.45
2022-08-20T07:22:49.343Z,993.50
2022-08-20T07:23:49.278Z,993.52
2022-08-20T07:24:49.333Z,993.52
2022-08-20T07:25:50.136Z,993.50
2022-08-20T07:26:49.218Z,993.54
2022-08-20T07:27:49.193Z,993.51
2022-08-20T07:28:49.264Z,993.60
2022-08-20T07:29:49.206Z,993.59
2022-08-20T07:30:56.914Z,993.58
2022-08-20T07:31:50.096Z,993.59
2022-08-20T07:32:49.127Z,993.62
2022-08-20T07:33:50.386Z,993.61
2022-08-20T07:34:49.138Z,993.58
2022-08-20T07:35:49.115Z,993.58
2022-08-20T07:36:49.712Z,993.60
2022-08-20T07:37:49.111Z,993.61
2022-08-20T07:38:49.079Z,993.64
2022-08-20T07:39:49.131Z,993.54
2022-08-20T07:40:49.221Z,993.59
2022-08-20T07:41:56.416Z,993.60
2022-08-20T07:42:50.107Z,993.56
2022-08-20T07:43:49.092Z,993.56
2022-08-20T07:44:49.022Z,993.54
2022-08-20T07:45:49.909Z,993.58
2022-08-20T07:52:52.376Z,993.61
2022-08-20T07:53:52.433Z,993.58
2022-08-20T07:54:52.383Z,993.61
2022-08-20T07:55:58.887Z,993.60
2022-08-20T07:56:52.361Z,993.64
2022-08-20T07:59:19.237Z,993.52
2022-08-20T08:01:46.169Z,993.63
2022-08-20T08:02:46.231Z,993.60
2022-08-20T08:03:50.030Z,993.61
2022-08-20T08:04:47.913Z,993.65
2022-08-20T08:05:47.247Z,993.67
2022-08-20T08:06:47.209Z,993.68
2022-08-20T08:07:47.340Z,993.72
2022-08-20T08:08:47.240Z,993.71
2022-08-20T08:09:47.191Z,993.71
2022-08-20T08:10:47.186Z,993.71
2022-08-20T08:11:47.817Z,993.68
2022-08-20T08:12:48.159Z,993.72
2022-08-20T08:13:47.151Z,993.78
2022-08-20T08:14:47.296Z,993.78
2022-08-20T08:15:47.162Z,993.78
2022-08-20T08:16:47.179Z,993.79
2022-08-20T08:17:47.109Z,993.76
2022-08-20T08:18:47.157Z,993.76
2022-08-20T08:19:47.121Z,993.81
2022-08-20T08:20:47.176Z,993.78
2022-08-20T08:21:47.895Z,993.77
2022-08-20T08:22:47.057Z,993.79
2022-08-20T08:23:47.107Z,993.78
2022-08-20T08:24:57.306Z,993.77
2022-08-20T08:25:48.049Z,993.75
2022-08-20T08:26:47.034Z,993.74
2022-08-20T08:27:47.064Z,993.76
2022-08-20T08:28:47.362Z,993.75
2022-08-20T08:29:47.135Z,993.75
2022-08-20T08:30:47.116Z,993.77
2022-08-20T08:31:47.026Z,993.72
2022-08-20T08:32:47.019Z,993.68
2022-08-20T08:33:46.989Z,993.73
2022-08-20T08:34:46.994Z,993.71
2022-08-20T08:35:46.932Z,993.70
2022-08-20T08:36:46.946Z,993.74
2022-08-20T08:37:46.956Z,993.72
2022-08-20T08:38:46.985Z,993.68
2022-08-20T08:39:46.953Z,993.66
2022-08-20T08:40:46.873Z,993.72
2022-08-20T08:41:46.899Z,993.68
2022-08-20T08:42:46.884Z,993.70
2022-08-20T08:43:46.911Z,993.70
2022-08-20T08:44:46.939Z,993.66
2022-08-20T08:45:46.877Z,993.68
2022-08-20T08:46:46.848Z,993.68
2022-08-20T08:47:46.988Z,993.68
2022-08-20T08:48:46.820Z,993.64
2022-08-20T08:49:46.935Z,993.60
2022-08-20T08:50:54.038Z,993.61
2022-08-20T08:51:48.834Z,993.65
2022-08-20T08:52:46.808Z,993.67
2022-08-20T08:53:46.758Z,993.73
2022-08-20T08:54:46.734Z,993.63
2022-08-20T08:55:46.755Z,993.69
2022-08-20T08:56:49.583Z,993.67
2022-08-20T08:57:46.715Z,993.74
2022-08-20T08:58:46.759Z,993.69
2022-08-20T09:00:02.438Z,993.66
2022-08-20T09:00:57.484Z,993.66
2022-08-20T09:01:54.541Z,993.70
2022-08-20T09:02:47.982Z,993.66
2022-08-20T09:03:46.652Z,993.63
2022-08-20T09:04:46.698Z,993.68
2022-08-20T09:05:46.993Z,993.71
2022-08-20T09:06:50.427Z,993.73
2022-08-20T09:07:48.607Z,993.64
2022-08-20T09:08:46.590Z,993.72
2022-08-20T09:09:46.678Z,993.67
2022-08-20T09:10:46.619Z,993.65
2022-08-20T09:11:46.571Z,993.72
2022-08-20T09:12:47.814Z,993.71
2022-08-20T09:13:46.554Z,993.72
2022-08-20T09:14:46.700Z,993.73
2022-08-20T09:15:46.540Z,993.71
2022-08-20T09:16:52.478Z,993.70
2022-08-20T09:17:46.603Z,993.73
2022-08-20T09:18:46.501Z,993.71
2022-08-20T09:19:46.639Z,993.68
2022-08-20T09:20:46.501Z,993.72
2022-08-20T09:21:47.192Z,993.62
2022-08-20T09:22:46.511Z,993.68
2022-08-20T09:23:46.457Z,993.67
2022-08-20T09:24:46.473Z,993.70
2022-08-20T09:25:46.500Z,993.66
2022-08-20T09:26:46.480Z,993.67
2022-08-20T09:27:46.387Z,993.61
2022-08-20T09:28:52.096Z,993.65
2022-08-20T09:29:49.227Z,993.69
2022-08-20T09:30:46.451Z,993.62
2022-08-20T09:31:46.539Z,993.60
2022-08-20T09:32:46.411Z,993.61
2022-08-20T09:33:46.485Z,993.67
2022-08-20T09:34:46.384Z,993.64
2022-08-20T09:35:46.377Z,993.64
2022-08-20T09:36:46.451Z,993.58
2022-08-20T09:37:46.365Z,993.57
2022-08-20T09:38:46.320Z,993.65
2022-08-20T09:39:46.327Z,993.63
2022-08-20T09:40:46.886Z,993.61
2022-08-20T09:41:46.262Z,993.61
2022-08-20T09:42:46.362Z,993.60
2022-08-20T09:43:46.294Z,993.61
2022-08-20T09:44:46.356Z,993.64
2022-08-20T09:45:46.282Z,993.53
2022-08-20T09:46:46.237Z,993.56
2022-08-20T09:47:56.262Z,993.56
2022-08-20T09:48:47.235Z,993.50
2022-08-20T09:49:47.320Z,993.48
2022-08-20T09:50:46.216Z,993.48
2022-08-20T09:51:46.193Z,993.45
2022-08-20T09:52:46.161Z,993.39
2022-08-20T09:53:46.139Z,993.42
2022-08-20T09:54:46.732Z,993.48
2022-08-20T09:55:46.211Z,993.42
2022-08-20T09:56:46.131Z,993.49
2022-08-20T09:57:46.117Z,993.44
2022-08-20T09:58:46.137Z,993.45
2022-08-20T09:59:46.147Z,993.44
2022-08-20T10:00:46.097Z,993.43
2022-08-20T10:01:46.128Z,993.40
2022-08-20T10:02:46.052Z,993.49
2022-08-20T10:03:46.853Z,993.46
2022-08-20T10:04:46.128Z,993.48
2022-08-20T10:05:46.072Z,993.45
2022-08-20T10:06:46.097Z,993.47
2022-08-20T10:07:46.025Z,993.52
2022-08-20T10:08:46.037Z,993.55
2022-08-20T10:09:46.052Z,993.49
2022-08-20T10:10:46.048Z,993.57
2022-08-20T10:11:46.023Z,993.54
2022-08-20T10:12:45.952Z,993.52
2022-08-20T10:13:46.041Z,993.55
2022-08-20T10:14:45.992Z,993.51
2022-08-20T10:15:46.061Z,993.47
2022-08-20T10:16:45.973Z,993.54
2022-08-20T10:17:46.876Z,993.49
2022-08-20T10:18:45.934Z,993.48
2022-08-20T10:19:46.695Z,993.48
2022-08-20T10:20:45.900Z,993.47
2022-08-20T10:21:46.047Z,993.47
2022-08-20T10:22:45.904Z,993.45
2022-08-20T10:23:45.899Z,993.40
2022-08-20T10:24:45.898Z,993.35
2022-08-20T10:25:45.827Z,993.37
2022-08-20T10:26:45.927Z,993.40
2022-08-20T10:27:45.831Z,993.33
2022-08-20T10:28:45.965Z,993.37
2022-08-20T10:29:46.994Z,993.33
2022-08-20T10:30:46.825Z,993.33
2022-08-20T10:31:45.898Z,993.30
2022-08-20T10:32:45.806Z,993.31
2022-08-20T10:33:46.722Z,993.36
2022-08-20T10:34:45.791Z,993.32
2022-08-20T10:35:45.782Z,993.32
2022-08-20T10:36:45.770Z,993.35
2022-08-20T10:37:45.762Z,993.33
2022-08-20T10:38:45.758Z,993.35
2022-08-20T10:39:46.777Z,993.31
2022-08-20T10:40:52.272Z,993.24
2022-08-20T10:41:45.771Z,993.23
2022-08-20T10:42:45.694Z,993.28
2022-08-20T10:43:45.714Z,993.28
2022-08-20T10:44:45.732Z,993.33
2022-08-20T10:45:45.886Z,993.34
2022-08-20T10:46:45.679Z,993.31
2022-08-20T10:47:45.714Z,993.22
2022-08-20T10:48:45.744Z,993.34
2022-08-20T10:49:45.855Z,993.34
2022-08-20T10:50:45.617Z,993.28
2022-08-20T10:51:45.628Z,993.27
2022-08-20T10:52:45.795Z,993.21
2022-08-20T10:53:45.683Z,993.18
2022-08-20T10:54:45.766Z,993.25
2022-08-20T10:55:45.655Z,993.22
2022-08-20T10:56:45.585Z,993.19
2022-08-20T10:57:45.549Z,993.18
2022-08-20T10:58:45.530Z,993.23
2022-08-20T10:59:45.620Z,993.25
2022-08-20T11:00:45.701Z,993.22
2022-08-20T11:01:46.473Z,993.21
2022-08-20T11:02:45.495Z,993.22
2022-08-20T11:03:45.542Z,993.28
2022-08-20T11:04:45.783Z,993.28
2022-08-20T11:05:45.499Z,993.25
2022-08-20T11:07:18.366Z,993.27
2022-08-20T11:09:48.025Z,993.29
2022-08-20T11:09:49.899Z,993.29
2022-08-20T11:10:53.508Z,993.29
2022-08-20T11:13:39.811Z,993.28
2022-08-20T11:14:40.803Z,993.27
2022-08-20T11:15:41.023Z,993.23
2022-08-20T11:16:40.967Z,993.25
2022-08-20T11:17:40.899Z,993.27
2022-08-20T11:18:46.331Z,993.27
2022-08-20T11:19:42.952Z,993.23
2022-08-20T11:20:40.909Z,993.23
2022-08-20T11:21:41.595Z,993.23
2022-08-20T11:22:40.883Z,993.22
2022-08-20T11:23:40.935Z,993.21
2022-08-20T11:24:40.905Z,993.27
2022-08-20T11:25:40.831Z,993.20
2022-08-20T11:26:40.846Z,993.33
2022-08-20T11:27:40.899Z,993.29
2022-08-20T11:28:40.797Z,993.33
2022-08-20T11:29:40.832Z,993.27
2022-08-20T11:30:41.795Z,993.27
2022-08-20T11:31:40.766Z,993.36
2022-08-20T11:32:40.761Z,993.36
2022-08-20T11:33:40.731Z,993.30
2022-08-20T11:34:40.738Z,993.36
2022-08-20T11:35:43.463Z,993.30
2022-08-20T11:36:42.872Z,993.34
2022-08-20T11:37:40.789Z,993.27
2022-08-20T11:38:40.714Z,993.33
2022-08-20T11:39:41.902Z,993.36
2022-08-20T11:40:41.697Z,993.33
2022-08-20T11:41:40.725Z,993.31
2022-08-20T11:42:58.410Z,993.33
2022-08-20T11:43:54.994Z,993.34
2022-08-20T11:44:41.713Z,993.27
2022-08-20T11:45:40.613Z,993.32
2022-08-20T11:46:40.674Z,993.33
2022-08-20T11:47:40.660Z,993.30
2022-08-20T11:48:40.632Z,993.31
2022-08-20T11:49:40.727Z,993.33
2022-08-20T11:50:40.585Z,993.40
2022-08-20T11:51:49.362Z,993.38
2022-08-20T11:52:41.557Z,993.46
2022-08-20T11:53:40.640Z,993.44
2022-08-20T11:54:40.658Z,993.39
2022-08-20T11:55:40.559Z,993.46
2022-08-20T11:56:40.650Z,993.36
2022-08-20T11:57:41.666Z,993.38
2022-08-20T11:58:40.564Z,993.45
2022-08-20T11:59:40.533Z,993.45
2022-08-20T12:00:40.665Z,993.52
2022-08-20T12:01:40.538Z,993.55
2022-08-20T12:02:41.577Z,993.56
2022-08-20T12:03:40.550Z,993.61
2022-08-20T12:04:40.549Z,993.65
2022-08-20T12:05:40.509Z,993.55
2022-08-20T12:06:40.447Z,993.64
2022-08-20T12:07:40.463Z,993.69
2022-08-20T12:08:40.451Z,993.62
2022-08-20T12:09:43.029Z,993.78
2022-08-20T12:10:41.454Z,993.78
2022-08-20T12:11:40.470Z,993.78
2022-08-20T12:12:40.667Z,993.83
2022-08-20T12:13:48.020Z,993.85
2022-08-20T12:14:40.451Z,993.82
2022-08-20T12:15:40.353Z,993.89
2022-08-20T12:16:40.347Z,993.97
2022-08-20T12:17:40.386Z,993.97
2022-08-20T12:18:40.322Z,994.05
2022-08-20T12:19:40.597Z,993.99
2022-08-20T12:20:40.318Z,994.08
2022-08-20T12:21:40.320Z,994.02
2022-08-20T12:22:40.316Z,994.04
2022-08-20T12:23:40.308Z,994.08
2022-08-20T12:24:40.518Z,994.05
2022-08-20T12:25:40.337Z,994.03
2022-08-20T12:26:40.341Z,994.13
2022-08-20T12:27:40.293Z,994.11
2022-08-20T12:28:40.557Z,994.09
2022-08-20T12:29:40.215Z,994.09
2022-08-20T12:30:40.273Z,994.05
2022-08-20T12:31:40.227Z,994.05
2022-08-20T12:32:40.210Z,994.06
2022-08-20T12:33:40.197Z,994.08
2022-08-20T12:34:40.191Z,994.05
2022-08-20T12:35:40.211Z,994.00
2022-08-20T12:36:40.192Z,994.02
2022-08-20T12:37:40.230Z,993.97
2022-08-20T12:38:40.138Z,993.98
2022-08-20T12:39:40.151Z,994.00
2022-08-20T12:40:40.100Z,993.95
2022-08-20T12:41:40.156Z,993.98
2022-08-20T12:42:40.184Z,994.02
2022-08-20T12:43:40.112Z,993.98
2022-08-20T12:44:40.121Z,994.00
2022-08-20T12:45:40.055Z,993.92
2022-08-20T12:46:40.142Z,993.87
2022-08-20T12:47:40.092Z,993.93
2022-08-20T12:48:39.981Z,993.93
2022-08-20T12:49:40.018Z,993.93
2022-08-20T12:50:40.032Z,993.96
2022-08-20T12:51:40.312Z,993.94
2022-08-20T12:52:39.997Z,993.93
2022-08-20T12:53:39.983Z,993.91
2022-08-20T12:54:39.957Z,993.93
2022-08-20T12:55:39.966Z,994.05
2022-08-20T12:56:39.954Z,994.02
2022-08-20T12:57:39.929Z,993.99
2022-08-20T12:58:40.042Z,994.00
2022-08-20T12:59:39.882Z,993.96
2022-08-20T13:00:39.968Z,994.07
2022-08-20T13:01:39.969Z,993.99
2022-08-20T13:02:39.907Z,994.05
2022-08-20T13:03:43.157Z,994.03
2022-08-20T13:04:40.863Z,993.99
2022-08-20T13:05:40.828Z,994.04
2022-08-20T13:06:39.889Z,994.03
2022-08-20T13:07:39.947Z,994.02
2022-08-20T13:08:39.794Z,994.09
2022-08-20T13:09:40.384Z,994.04
2022-08-20T13:10:40.466Z,993.99
2022-08-20T13:11:39.779Z,994.01
2022-08-20T13:12:39.855Z,993.99
2022-08-20T13:13:39.793Z,993.99
2022-08-20T13:14:39.881Z,993.97
2022-08-20T13:15:39.770Z,993.93
2022-08-20T13:16:39.703Z,993.96
2022-08-20T13:17:40.531Z,993.97
2022-08-20T13:18:39.749Z,993.89
2022-08-20T13:19:39.779Z,993.98
2022-08-20T13:20:39.721Z,993.93
2022-08-20T13:21:39.701Z,993.89
2022-08-20T13:22:39.760Z,993.85
2022-08-20T13:23:39.741Z,993.85
2022-08-20T13:24:40.474Z,993.81
2022-08-20T13:25:39.685Z,993.80
2022-08-20T13:26:39.607Z,993.74
2022-08-20T13:27:39.819Z,993.77
2022-08-20T13:28:39.760Z,993.75
2022-08-20T13:29:39.640Z,993.67
2022-08-20T13:30:39.637Z,993.72
2022-08-20T13:31:39.597Z,993.76
2022-08-20T13:32:39.579Z,993.70
2022-08-20T13:33:39.638Z,993.68
2022-08-20T13:34:39.553Z,993.65
2022-08-20T13:35:39.650Z,993.69
2022-08-20T13:36:39.542Z,993.71
2022-08-20T13:37:39.572Z,993.66
2022-08-20T13:38:39.512Z,993.68
2022-08-20T13:39:39.593Z,993.68
2022-08-20T13:40:39.680Z,993.66
2022-08-20T13:41:40.550Z,993.61
2022-08-20T13:42:39.643Z,993.57
2022-08-20T13:43:39.494Z,993.63
2022-08-20T13:44:39.524Z,993.60
2022-08-20T13:45:39.834Z,993.60
2022-08-20T13:46:39.475Z,993.61
2022-08-20T13:47:39.482Z,993.57
2022-08-20T13:48:39.475Z,993.53
2022-08-20T13:50:13.968Z,993.49
2022-08-20T13:50:39.613Z,993.52
2022-08-20T13:51:39.619Z,993.52
2022-08-20T13:52:39.469Z,993.47
2022-08-20T13:53:39.461Z,993.46
2022-08-20T13:54:39.385Z,993.48
2022-08-20T13:55:39.430Z,993.40
2022-08-20T13:56:39.559Z,993.40
2022-08-20T13:57:39.408Z,993.46
2022-08-20T13:58:39.384Z,993.46
2022-08-20T13:59:39.388Z,993.41
2022-08-20T14:00:39.302Z,993.43
2022-08-20T14:01:39.518Z,993.41
2022-08-20T14:02:39.271Z,993.44
2022-08-20T14:03:39.426Z,993.45
2022-08-20T14:04:39.305Z,993.52
2022-08-20T14:05:39.372Z,993.43
2022-08-20T14:06:39.280Z,993.43
2022-08-20T14:07:39.293Z,993.47
2022-08-20T14:08:39.217Z,993.49
2022-08-20T14:09:39.231Z,993.51
2022-08-20T14:10:39.349Z,993.44
2022-08-20T14:11:39.232Z,993.47
2022-08-20T14:12:39.209Z,993.55
2022-08-20T14:13:39.167Z,993.61
2022-08-20T14:14:40.108Z,993.65
2022-08-20T14:15:39.200Z,993.68
2022-08-20T14:16:39.164Z,993.68
2022-08-20T14:17:39.142Z,993.66
2022-08-20T14:18:39.213Z,993.64
2022-08-20T14:19:39.172Z,993.71
2022-08-20T14:20:39.148Z,993.73
2022-08-20T14:21:39.177Z,993.69
2022-08-20T14:22:39.110Z,993.71
2022-08-20T14:23:39.146Z,993.69
2022-08-20T14:24:39.080Z,993.71
2022-08-20T14:25:39.135Z,993.68
2022-08-20T14:26:39.082Z,993.60
2022-08-20T14:27:39.168Z,993.64
2022-08-20T14:28:39.130Z,993.63
2022-08-20T14:29:39.023Z,993.65
2022-08-20T14:30:39.040Z,993.68
2022-08-20T14:31:39.074Z,993.68
2022-08-20T14:32:38.978Z,993.62
2022-08-20T14:33:43.936Z,993.64
2022-08-20T14:34:41.004Z,993.62
2022-08-20T14:35:39.185Z,993.68
2022-08-20T14:36:38.982Z,993.67
2022-08-20T14:37:38.994Z,993.77
2022-08-20T14:38:38.947Z,993.71
2022-08-20T14:39:39.023Z,993.75
2022-08-20T14:41:12.549Z,993.68
2022-08-20T14:41:39.187Z,993.67
2022-08-20T14:42:39.165Z,993.69
2022-08-20T14:44:11.617Z,993.56
2022-08-20T14:44:40.236Z,993.54
2022-08-20T14:46:13.912Z,993.55
2022-08-20T14:46:39.197Z,993.53
2022-08-20T14:48:11.544Z,993.51
2022-08-20T14:51:20.137Z,993.50
2022-08-20T14:52:29.300Z,993.53
2022-08-20T14:53:20.115Z,993.45
2022-08-20T14:54:19.981Z,993.48
2022-08-20T14:55:20.020Z,993.38
2022-08-20T14:56:27.896Z,993.46
2022-08-20T14:57:20.175Z,993.42
2022-08-20T14:58:28.773Z,993.45
2022-08-20T14:59:29.897Z,993.37
2022-08-20T15:00:21.269Z,993.33
2022-08-20T15:01:56.248Z,993.16
2022-08-20T15:02:54.148Z,993.18
2022-08-20T15:07:10.892Z,993.14
2022-08-20T15:09:27.451Z,993.12
2022-08-20T15:13:11.637Z,993.22
2022-08-20T15:15:58.898Z,993.11
2022-08-20T15:19:19.163Z,993.07
2022-08-20T15:22:37.277Z,993.29
2022-08-20T15:27:23.435Z,993.19
2022-08-20T15:30:37.038Z,993.04
2022-08-20T15:31:45.524Z,992.98
2022-08-20T15:34:28.965Z,993.24
2022-08-20T15:35:29.043Z,993.22
2022-08-20T15:38:03.604Z,993.27
2022-08-20T15:40:50.950Z,993.06
2022-08-20T15:44:08.318Z,993.07
2022-08-20T15:46:37.520Z,993.17
2022-08-20T15:52:22.217Z,993.24
2022-08-20T15:55:17.581Z,993.29
2022-08-20T15:59:04.654Z,993.41
2022-08-20T16:00:12.503Z,993.35
2022-08-20T16:02:25.998Z,993.27
2022-08-20T16:05:16.297Z,993.23
2022-08-20T16:06:25.036Z,993.27
2022-08-20T16:07:16.309Z,993.29
2022-08-20T16:10:32.032Z,993.29
2022-08-20T16:11:32.136Z,993.31
2022-08-20T16:12:33.409Z,993.28
2022-08-20T16:14:08.300Z,993.26
2022-08-20T16:14:33.290Z,993.20
2022-08-20T16:15:33.809Z,993.34
2022-08-20T16:16:33.229Z,993.31
2022-08-20T16:17:33.170Z,993.35
2022-08-20T16:18:33.075Z,993.30
2022-08-20T16:19:33.056Z,993.29
2022-08-20T16:20:35.653Z,993.31
2022-08-20T16:21:33.059Z,993.36
2022-08-20T16:22:33.045Z,993.33
2022-08-20T16:23:32.993Z,993.30
2022-08-20T16:24:33.048Z,993.34